sensor_id;sensor_type;location;lat;lon;timestamp;P1;durP1;ratioP1;P2;durP2;ratioP2
72920;SDS011;61064;51.654;5.476;2022-10-16T00:01:08;7.90;;;2.20;;
72920;SDS011;61064;51.654;5.476;2022-10-16T00:03:38;6.28;;;2.20;;
72920;SDS011;61064;51.654;5.476;2022-10-16T00:06:04;7.73;;;2.40;;
72920;SDS011;61064;51.654;5.476;2022-10-16T00:08:30;7.53;;;2.28;;
72920;SDS011;61064;51.654;5.476;2022-10-16T00:11:04;7.15;;;2.42;;
72920;SDS011;61064;51.654;5.476;2022-10-16T00:13:32;7.22;;;2.17;;
72920;SDS011;61064;51.654;5.476;2022-10-16T00:16:00;9.52;;;2.33;;
72920;SDS011;61064;51.654;5.476;2022-10-16T00:18:27;7.47;;;2.43;;
72920;SDS011;61064;51.654;5.476;2022-10-16T00:20:53;7.07;;;2.50;;
72920;SDS011;61064;51.654;5.476;2022-10-16T00:23:19;9.23;;;2.40;;
72920;SDS011;61064;51.654;5.476;2022-10-16T00:25:53;8.02;;;2.30;;
72920;SDS011;61064;51.654;5.476;2022-10-16T00:28:23;9.40;;;2.20;;
72920;SDS011;61064;51.654;5.476;2022-10-16T00:30:49;7.63;;;2.40;;
72920;SDS011;61064;51.654;5.476;2022-10-16T00:33:14;7.33;;;2.20;;
72920;SDS011;61064;51.654;5.476;2022-10-16T00:35:39;8.20;;;2.30;;
72920;SDS011;61064;51.654;5.476;2022-10-16T00:38:07;7.28;;;2.00;;
72920;SDS011;61064;51.654;5.476;2022-10-16T00:40:33;9.67;;;2.20;;
72920;SDS011;61064;51.654;5.476;2022-10-16T00:42:58;7.68;;;1.80;;
72920;SDS011;61064;51.654;5.476;2022-10-16T00:45:23;8.87;;;2.03;;
72920;SDS011;61064;51.654;5.476;2022-10-16T00:47:49;7.07;;;2.10;;
72920;SDS011;61064;51.654;5.476;2022-10-16T00:50:27;7.53;;;2.30;;
72920;SDS011;61064;51.654;5.476;2022-10-16T00:52:55;7.82;;;2.30;;
72920;SDS011;61064;51.654;5.476;2022-10-16T00:55:21;7.07;;;2.00;;
72920;SDS011;61064;51.654;5.476;2022-10-16T00:57:47;5.20;;;1.80;;
72920;SDS011;61064;51.654;5.476;2022-10-16T01:00:15;7.20;;;2.60;;
72920;SDS011;61064;51.654;5.476;2022-10-16T01:02:43;6.00;;;1.90;;
72920;SDS011;61064;51.654;5.476;2022-10-16T01:05:09;7.93;;;2.03;;
72920;SDS011;61064;51.654;5.476;2022-10-16T01:07:37;8.00;;;2.22;;
72920;SDS011;61064;51.654;5.476;2022-10-16T01:13:08;8.85;;;2.03;;
72920;SDS011;61064;51.654;5.476;2022-10-16T01:20:49;7.18;;;2.00;;
72920;SDS011;61064;51.654;5.476;2022-10-16T01:23:36;6.85;;;2.10;;
72920;SDS011;61064;51.654;5.476;2022-10-16T01:29:37;7.50;;;1.83;;
72920;SDS011;61064;51.654;5.476;2022-10-16T01:32:31;5.60;;;1.90;;
72920;SDS011;61064;51.654;5.476;2022-10-16T01:35:11;7.15;;;2.15;;
72920;SDS011;61064;51.654;5.476;2022-10-16T01:38:12;7.97;;;1.88;;
72920;SDS011;61064;51.654;5.476;2022-10-16T01:40:47;7.70;;;1.85;;
72920;SDS011;61064;51.654;5.476;2022-10-16T01:43:21;7.80;;;1.90;;
72920;SDS011;61064;51.654;5.476;2022-10-16T01:45:50;8.43;;;1.95;;
72920;SDS011;61064;51.654;5.476;2022-10-16T01:48:18;8.40;;;2.05;;
72920;SDS011;61064;51.654;5.476;2022-10-16T01:50:49;6.63;;;1.80;;
72920;SDS011;61064;51.654;5.476;2022-10-16T01:53:20;6.80;;;1.77;;
72920;SDS011;61064;51.654;5.476;2022-10-16T01:55:47;5.43;;;1.60;;
72920;SDS011;61064;51.654;5.476;2022-10-16T01:58:14;7.03;;;1.70;;
72920;SDS011;61064;51.654;5.476;2022-10-16T02:00:42;6.28;;;1.77;;
72920;SDS011;61064;51.654;5.476;2022-10-16T02:03:10;5.82;;;1.65;;
72920;SDS011;61064;51.654;5.476;2022-10-16T02:05:44;7.30;;;1.83;;
72920;SDS011;61064;51.654;5.476;2022-10-16T02:08:14;5.95;;;1.70;;
72920;SDS011;61064;51.654;5.476;2022-10-16T02:10:39;5.57;;;1.70;;
72920;SDS011;61064;51.654;5.476;2022-10-16T02:13:12;7.67;;;1.80;;
72920;SDS011;61064;51.654;5.476;2022-10-16T02:15:59;6.68;;;1.63;;
72920;SDS011;61064;51.654;5.476;2022-10-16T02:18:25;6.77;;;1.80;;
72920;SDS011;61064;51.654;5.476;2022-10-16T02:20:58;5.78;;;1.60;;
72920;SDS011;61064;51.654;5.476;2022-10-16T02:23:35;6.10;;;1.38;;
72920;SDS011;61064;51.654;5.476;2022-10-16T02:26:12;6.28;;;1.50;;
72920;SDS011;61064;51.654;5.476;2022-10-16T02:28:48;5.80;;;1.63;;
72920;SDS011;61064;51.654;5.476;2022-10-16T02:31:23;7.07;;;1.50;;
72920;SDS011;61064;51.654;5.476;2022-10-16T02:33:52;4.80;;;1.40;;
72920;SDS011;61064;51.654;5.476;2022-10-16T02:36:21;7.45;;;1.60;;
72920;SDS011;61064;51.654;5.476;2022-10-16T02:38:47;5.78;;;1.70;;
72920;SDS011;61064;51.654;5.476;2022-10-16T02:41:14;7.80;;;1.63;;
72920;SDS011;61064;51.654;5.476;2022-10-16T02:43:39;5.47;;;1.40;;
72920;SDS011;61064;51.654;5.476;2022-10-16T02:46:05;6.27;;;1.53;;
72920;SDS011;61064;51.654;5.476;2022-10-16T02:48:31;7.25;;;1.50;;
72920;SDS011;61064;51.654;5.476;2022-10-16T02:50:57;6.47;;;1.60;;
72920;SDS011;61064;51.654;5.476;2022-10-16T02:53:22;6.93;;;1.70;;
72920;SDS011;61064;51.654;5.476;2022-10-16T02:55:49;5.53;;;1.45;;
72920;SDS011;61064;51.654;5.476;2022-10-16T02:58:14;6.97;;;1.60;;
72920;SDS011;61064;51.654;5.476;2022-10-16T03:00:40;5.05;;;1.40;;
72920;SDS011;61064;51.654;5.476;2022-10-16T03:03:06;7.47;;;1.53;;
72920;SDS011;61064;51.654;5.476;2022-10-16T03:05:31;5.53;;;1.57;;
72920;SDS011;61064;51.654;5.476;2022-10-16T03:07:57;7.47;;;1.60;;
72920;SDS011;61064;51.654;5.476;2022-10-16T03:10:25;5.40;;;1.30;;
72920;SDS011;61064;51.654;5.476;2022-10-16T03:12:51;6.47;;;1.40;;
72920;SDS011;61064;51.654;5.476;2022-10-16T03:15:16;7.57;;;1.70;;
72920;SDS011;61064;51.654;5.476;2022-10-16T03:17:42;6.30;;;1.57;;
72920;SDS011;61064;51.654;5.476;2022-10-16T03:20:08;5.83;;;1.50;;
72920;SDS011;61064;51.654;5.476;2022-10-16T03:22:34;5.93;;;1.40;;
72920;SDS011;61064;51.654;5.476;2022-10-16T03:25:00;5.00;;;1.50;;
72920;SDS011;61064;51.654;5.476;2022-10-16T03:27:25;6.00;;;1.58;;
72920;SDS011;61064;51.654;5.476;2022-10-16T03:29:51;6.80;;;1.30;;
72920;SDS011;61064;51.654;5.476;2022-10-16T03:32:16;7.23;;;1.70;;
72920;SDS011;61064;51.654;5.476;2022-10-16T03:34:42;6.13;;;1.43;;
72920;SDS011;61064;51.654;5.476;2022-10-16T03:37:07;5.03;;;1.43;;
72920;SDS011;61064;51.654;5.476;2022-10-16T03:39:33;5.33;;;1.30;;
72920;SDS011;61064;51.654;5.476;2022-10-16T03:41:58;6.10;;;1.33;;
72920;SDS011;61064;51.654;5.476;2022-10-16T03:44:23;6.80;;;1.70;;
72920;SDS011;61064;51.654;5.476;2022-10-16T03:46:49;6.50;;;1.40;;
72920;SDS011;61064;51.654;5.476;2022-10-16T03:49:14;5.03;;;1.20;;
72920;SDS011;61064;51.654;5.476;2022-10-16T03:51:40;5.57;;;1.30;;
72920;SDS011;61064;51.654;5.476;2022-10-16T03:54:06;5.33;;;1.30;;
72920;SDS011;61064;51.654;5.476;2022-10-16T03:56:31;6.07;;;1.50;;
72920;SDS011;61064;51.654;5.476;2022-10-16T03:58:59;5.05;;;1.40;;
72920;SDS011;61064;51.654;5.476;2022-10-16T04:01:24;6.15;;;1.23;;
72920;SDS011;61064;51.654;5.476;2022-10-16T04:03:50;4.87;;;1.20;;
72920;SDS011;61064;51.654;5.476;2022-10-16T04:06:15;4.70;;;1.10;;
72920;SDS011;61064;51.654;5.476;2022-10-16T04:08:44;4.67;;;1.10;;
72920;SDS011;61064;51.654;5.476;2022-10-16T04:11:10;4.10;;;1.10;;
72920;SDS011;61064;51.654;5.476;2022-10-16T04:13:35;4.53;;;1.10;;
72920;SDS011;61064;51.654;5.476;2022-10-16T04:16:01;5.60;;;1.33;;
72920;SDS011;61064;51.654;5.476;2022-10-16T04:18:27;9.90;;;1.40;;
72920;SDS011;61064;51.654;5.476;2022-10-16T04:20:54;4.97;;;1.40;;
72920;SDS011;61064;51.654;5.476;2022-10-16T04:23:20;4.93;;;1.03;;
72920;SDS011;61064;51.654;5.476;2022-10-16T04:25:47;5.10;;;1.05;;
72920;SDS011;61064;51.654;5.476;2022-10-16T04:28:13;6.80;;;1.30;;
72920;SDS011;61064;51.654;5.476;2022-10-16T04:30:39;5.70;;;1.13;;
72920;SDS011;61064;51.654;5.476;2022-10-16T04:33:04;6.57;;;1.20;;
72920;SDS011;61064;51.654;5.476;2022-10-16T04:35:30;3.87;;;0.90;;
72920;SDS011;61064;51.654;5.476;2022-10-16T04:37:57;5.73;;;1.20;;
72920;SDS011;61064;51.654;5.476;2022-10-16T04:40:25;3.88;;;1.13;;
72920;SDS011;61064;51.654;5.476;2022-10-16T04:42:50;3.90;;;1.00;;
72920;SDS011;61064;51.654;5.476;2022-10-16T04:45:16;5.75;;;1.30;;
72920;SDS011;61064;51.654;5.476;2022-10-16T04:47:41;4.17;;;1.03;;
72920;SDS011;61064;51.654;5.476;2022-10-16T04:50:07;5.18;;;1.10;;
72920;SDS011;61064;51.654;5.476;2022-10-16T04:52:33;5.20;;;1.10;;
72920;SDS011;61064;51.654;5.476;2022-10-16T04:54:58;5.33;;;1.30;;
72920;SDS011;61064;51.654;5.476;2022-10-16T04:57:26;5.85;;;1.30;;
72920;SDS011;61064;51.654;5.476;2022-10-16T04:59:52;6.15;;;1.40;;
72920;SDS011;61064;51.654;5.476;2022-10-16T05:02:18;6.00;;;1.30;;
72920;SDS011;61064;51.654;5.476;2022-10-16T05:04:43;5.55;;;1.10;;
72920;SDS011;61064;51.654;5.476;2022-10-16T05:07:09;4.37;;;1.10;;
72920;SDS011;61064;51.654;5.476;2022-10-16T05:09:34;4.60;;;1.20;;
72920;SDS011;61064;51.654;5.476;2022-10-16T05:12:01;5.00;;;1.07;;
72920;SDS011;61064;51.654;5.476;2022-10-16T05:14:28;5.60;;;1.38;;
72920;SDS011;61064;51.654;5.476;2022-10-16T05:16:55;6.13;;;1.17;;
72920;SDS011;61064;51.654;5.476;2022-10-16T05:19:20;4.33;;;1.10;;
72920;SDS011;61064;51.654;5.476;2022-10-16T05:21:46;5.45;;;1.30;;
72920;SDS011;61064;51.654;5.476;2022-10-16T05:24:11;5.87;;;1.23;;
72920;SDS011;61064;51.654;5.476;2022-10-16T05:26:36;7.00;;;1.37;;
72920;SDS011;61064;51.654;5.476;2022-10-16T05:29:02;7.33;;;1.20;;
72920;SDS011;61064;51.654;5.476;2022-10-16T05:31:28;8.80;;;1.40;;
72920;SDS011;61064;51.654;5.476;2022-10-16T05:33:57;5.40;;;1.33;;
72920;SDS011;61064;51.654;5.476;2022-10-16T05:36:24;5.43;;;1.33;;
72920;SDS011;61064;51.654;5.476;2022-10-16T05:38:50;8.07;;;1.70;;
72920;SDS011;61064;51.654;5.476;2022-10-16T05:41:18;5.15;;;1.30;;
72920;SDS011;61064;51.654;5.476;2022-10-16T05:43:50;7.50;;;1.58;;
72920;SDS011;61064;51.654;5.476;2022-10-16T05:46:15;6.27;;;1.40;;
72920;SDS011;61064;51.654;5.476;2022-10-16T05:48:41;5.72;;;1.50;;
72920;SDS011;61064;51.654;5.476;2022-10-16T05:51:07;5.20;;;1.40;;
72920;SDS011;61064;51.654;5.476;2022-10-16T05:53:35;6.55;;;1.50;;
72920;SDS011;61064;51.654;5.476;2022-10-16T05:56:03;6.00;;;1.50;;
72920;SDS011;61064;51.654;5.476;2022-10-16T05:58:29;5.85;;;1.58;;
72920;SDS011;61064;51.654;5.476;2022-10-16T06:01:04;7.63;;;1.37;;
72920;SDS011;61064;51.654;5.476;2022-10-16T06:03:32;6.40;;;1.45;;
72920;SDS011;61064;51.654;5.476;2022-10-16T06:05:59;7.53;;;1.42;;
72920;SDS011;61064;51.654;5.476;2022-10-16T06:08:33;9.25;;;1.70;;
72920;SDS011;61064;51.654;5.476;2022-10-16T06:11:04;5.55;;;1.40;;
72920;SDS011;61064;51.654;5.476;2022-10-16T06:13:31;5.20;;;1.30;;
72920;SDS011;61064;51.654;5.476;2022-10-16T06:15:57;5.68;;;1.58;;
72920;SDS011;61064;51.654;5.476;2022-10-16T06:18:24;6.50;;;1.47;;
72920;SDS011;61064;51.654;5.476;2022-10-16T06:20:50;5.40;;;1.60;;
72920;SDS011;61064;51.654;5.476;2022-10-16T06:23:15;5.03;;;1.40;;
72920;SDS011;61064;51.654;5.476;2022-10-16T06:25:41;8.98;;;1.50;;
72920;SDS011;61064;51.654;5.476;2022-10-16T06:28:06;7.10;;;1.30;;
72920;SDS011;61064;51.654;5.476;2022-10-16T06:30:31;6.73;;;1.60;;
72920;SDS011;61064;51.654;5.476;2022-10-16T06:32:57;8.10;;;1.70;;
72920;SDS011;61064;51.654;5.476;2022-10-16T06:35:22;7.60;;;1.65;;
72920;SDS011;61064;51.654;5.476;2022-10-16T06:37:48;8.60;;;1.77;;
72920;SDS011;61064;51.654;5.476;2022-10-16T06:40:14;7.57;;;2.22;;
72920;SDS011;61064;51.654;5.476;2022-10-16T06:42:40;8.20;;;1.60;;
72920;SDS011;61064;51.654;5.476;2022-10-16T06:45:05;7.80;;;1.95;;
72920;SDS011;61064;51.654;5.476;2022-10-16T06:47:31;9.20;;;1.67;;
72920;SDS011;61064;51.654;5.476;2022-10-16T06:49:56;7.43;;;1.70;;
72920;SDS011;61064;51.654;5.476;2022-10-16T06:52:22;7.55;;;1.80;;
72920;SDS011;61064;51.654;5.476;2022-10-16T06:54:47;6.93;;;1.63;;
72920;SDS011;61064;51.654;5.476;2022-10-16T06:57:12;6.17;;;1.30;;
72920;SDS011;61064;51.654;5.476;2022-10-16T06:59:38;7.03;;;1.63;;
72920;SDS011;61064;51.654;5.476;2022-10-16T07:02:03;8.90;;;1.60;;
72920;SDS011;61064;51.654;5.476;2022-10-16T07:04:29;7.87;;;1.57;;
72920;SDS011;61064;51.654;5.476;2022-10-16T07:06:54;7.53;;;1.60;;
72920;SDS011;61064;51.654;5.476;2022-10-16T07:09:19;6.17;;;1.60;;
72920;SDS011;61064;51.654;5.476;2022-10-16T07:11:45;6.13;;;1.30;;
72920;SDS011;61064;51.654;5.476;2022-10-16T07:14:15;6.13;;;1.50;;
72920;SDS011;61064;51.654;5.476;2022-10-16T07:16:42;6.32;;;1.30;;
72920;SDS011;61064;51.654;5.476;2022-10-16T07:19:07;5.57;;;1.40;;
72920;SDS011;61064;51.654;5.476;2022-10-16T07:21:33;7.38;;;1.40;;
72920;SDS011;61064;51.654;5.476;2022-10-16T07:24:03;7.22;;;1.40;;
72920;SDS011;61064;51.654;5.476;2022-10-16T07:26:31;8.57;;;1.55;;
72920;SDS011;61064;51.654;5.476;2022-10-16T07:28:58;10.37;;;1.40;;
72920;SDS011;61064;51.654;5.476;2022-10-16T07:31:24;6.30;;;1.30;;
72920;SDS011;61064;51.654;5.476;2022-10-16T07:33:50;6.30;;;1.30;;
72920;SDS011;61064;51.654;5.476;2022-10-16T07:36:17;5.82;;;1.48;;
72920;SDS011;61064;51.654;5.476;2022-10-16T07:38:43;9.90;;;1.50;;
72920;SDS011;61064;51.654;5.476;2022-10-16T07:41:13;6.95;;;1.38;;
72920;SDS011;61064;51.654;5.476;2022-10-16T07:43:40;6.40;;;1.40;;
72920;SDS011;61064;51.654;5.476;2022-10-16T07:46:13;5.95;;;1.20;;
72920;SDS011;61064;51.654;5.476;2022-10-16T07:48:39;9.98;;;1.55;;
72920;SDS011;61064;51.654;5.476;2022-10-16T07:51:06;9.07;;;1.25;;
72920;SDS011;61064;51.654;5.476;2022-10-16T07:53:32;8.97;;;1.63;;
72920;SDS011;61064;51.654;5.476;2022-10-16T07:56:02;7.90;;;1.27;;
72920;SDS011;61064;51.654;5.476;2022-10-16T07:58:29;5.25;;;1.40;;
72920;SDS011;61064;51.654;5.476;2022-10-16T08:00:55;6.22;;;1.20;;
72920;SDS011;61064;51.654;5.476;2022-10-16T08:03:21;5.38;;;1.55;;
72920;SDS011;61064;51.654;5.476;2022-10-16T08:05:47;6.93;;;1.60;;
72920;SDS011;61064;51.654;5.476;2022-10-16T08:08:13;5.68;;;1.35;;
72920;SDS011;61064;51.654;5.476;2022-10-16T08:10:39;5.82;;;1.20;;
72920;SDS011;61064;51.654;5.476;2022-10-16T08:13:05;8.77;;;1.50;;
72920;SDS011;61064;51.654;5.476;2022-10-16T08:15:30;5.87;;;1.40;;
72920;SDS011;61064;51.654;5.476;2022-10-16T08:18:00;5.63;;;1.20;;
72920;SDS011;61064;51.654;5.476;2022-10-16T08:20:28;5.40;;;1.20;;
72920;SDS011;61064;51.654;5.476;2022-10-16T08:22:55;7.53;;;1.20;;
72920;SDS011;61064;51.654;5.476;2022-10-16T08:25:21;9.68;;;1.50;;
72920;SDS011;61064;51.654;5.476;2022-10-16T08:27:48;5.60;;;1.30;;
72920;SDS011;61064;51.654;5.476;2022-10-16T08:30:14;5.45;;;1.30;;
72920;SDS011;61064;51.654;5.476;2022-10-16T08:32:40;6.10;;;1.50;;
72920;SDS011;61064;51.654;5.476;2022-10-16T08:35:07;5.82;;;1.15;;
72920;SDS011;61064;51.654;5.476;2022-10-16T08:37:34;6.45;;;1.20;;
72920;SDS011;61064;51.654;5.476;2022-10-16T08:40:00;5.27;;;1.20;;
72920;SDS011;61064;51.654;5.476;2022-10-16T08:45:26;6.28;;;1.48;;
72920;SDS011;61064;51.654;5.476;2022-10-16T08:48:05;6.97;;;1.40;;
72920;SDS011;61064;51.654;5.476;2022-10-16T08:50:40;7.68;;;1.35;;
72920;SDS011;61064;51.654;5.476;2022-10-16T08:53:05;7.60;;;1.40;;
72920;SDS011;61064;51.654;5.476;2022-10-16T08:58:16;5.57;;;1.10;;
72920;SDS011;61064;51.654;5.476;2022-10-16T09:00:44;5.60;;;1.15;;
72920;SDS011;61064;51.654;5.476;2022-10-16T09:05:57;6.45;;;1.20;;
72920;SDS011;61064;51.654;5.476;2022-10-16T09:14:43;7.00;;;1.13;;
72920;SDS011;61064;51.654;5.476;2022-10-16T09:23:25;6.60;;;1.10;;
72920;SDS011;61064;51.654;5.476;2022-10-16T09:25:52;8.03;;;0.97;;
72920;SDS011;61064;51.654;5.476;2022-10-16T09:28:19;6.90;;;1.25;;
72920;SDS011;61064;51.654;5.476;2022-10-16T09:30:45;7.57;;;1.10;;
72920;SDS011;61064;51.654;5.476;2022-10-16T09:33:13;6.55;;;1.33;;
72920;SDS011;61064;51.654;5.476;2022-10-16T09:35:42;6.20;;;1.00;;
72920;SDS011;61064;51.654;5.476;2022-10-16T09:38:24;8.07;;;1.45;;
72920;SDS011;61064;51.654;5.476;2022-10-16T09:40:52;6.18;;;1.38;;
72920;SDS011;61064;51.654;5.476;2022-10-16T09:43:38;8.60;;;1.10;;
72920;SDS011;61064;51.654;5.476;2022-10-16T09:46:08;7.88;;;1.27;;
72920;SDS011;61064;51.654;5.476;2022-10-16T09:48:47;8.75;;;1.40;;
72920;SDS011;61064;51.654;5.476;2022-10-16T09:51:19;10.77;;;1.50;;
72920;SDS011;61064;51.654;5.476;2022-10-16T09:53:47;9.13;;;1.15;;
72920;SDS011;61064;51.654;5.476;2022-10-16T09:56:21;10.63;;;1.53;;
72920;SDS011;61064;51.654;5.476;2022-10-16T09:58:52;7.95;;;1.10;;
72920;SDS011;61064;51.654;5.476;2022-10-16T10:01:20;9.23;;;1.20;;
72920;SDS011;61064;51.654;5.476;2022-10-16T10:03:48;9.63;;;1.50;;
72920;SDS011;61064;51.654;5.476;2022-10-16T10:09:21;11.05;;;1.42;;
72920;SDS011;61064;51.654;5.476;2022-10-16T10:11:56;9.45;;;1.35;;
72920;SDS011;61064;51.654;5.476;2022-10-16T10:16:53;7.83;;;1.73;;
72920;SDS011;61064;51.654;5.476;2022-10-16T10:36:34;9.23;;;1.08;;
72920;SDS011;61064;51.654;5.476;2022-10-16T10:39:17;14.60;;;2.90;;
72920;SDS011;61064;51.654;5.476;2022-10-16T10:42:11;8.10;;;1.55;;
72920;SDS011;61064;51.654;5.476;2022-10-16T10:47:41;9.88;;;1.45;;
72920;SDS011;61064;51.654;5.476;2022-10-16T10:56:10;8.57;;;1.50;;
72920;SDS011;61064;51.654;5.476;2022-10-16T10:59:02;11.85;;;1.10;;
72920;SDS011;61064;51.654;5.476;2022-10-16T11:01:47;9.02;;;1.20;;
72920;SDS011;61064;51.654;5.476;2022-10-16T11:05:21;9.48;;;1.30;;
72920;SDS011;61064;51.654;5.476;2022-10-16T11:07:43;12.40;;;1.47;;
72920;SDS011;61064;51.654;5.476;2022-10-16T11:10:21;10.57;;;1.10;;
72920;SDS011;61064;51.654;5.476;2022-10-16T11:12:59;11.27;;;1.00;;
72920;SDS011;61064;51.654;5.476;2022-10-16T11:15:46;9.27;;;1.05;;
72920;SDS011;61064;51.654;5.476;2022-10-16T11:21:04;10.33;;;1.20;;
72920;SDS011;61064;51.654;5.476;2022-10-16T11:26:34;10.40;;;0.90;;
72920;SDS011;61064;51.654;5.476;2022-10-16T11:29:04;9.75;;;1.00;;
72920;SDS011;61064;51.654;5.476;2022-10-16T11:31:49;8.65;;;1.10;;
72920;SDS011;61064;51.654;5.476;2022-10-16T11:34:26;9.87;;;1.07;;
72920;SDS011;61064;51.654;5.476;2022-10-16T11:36:58;9.40;;;1.42;;
72920;SDS011;61064;51.654;5.476;2022-10-16T11:39:33;8.45;;;1.20;;
72920;SDS011;61064;51.654;5.476;2022-10-16T11:42:04;9.30;;;1.30;;
72920;SDS011;61064;51.654;5.476;2022-10-16T11:49:30;10.07;;;1.30;;
72920;SDS011;61064;51.654;5.476;2022-10-16T11:52:00;10.35;;;1.65;;
72920;SDS011;61064;51.654;5.476;2022-10-16T11:57:19;7.75;;;1.10;;
72920;SDS011;61064;51.654;5.476;2022-10-16T11:59:50;7.82;;;1.00;;
72920;SDS011;61064;51.654;5.476;2022-10-16T12:10:40;10.38;;;1.70;;
72920;SDS011;61064;51.654;5.476;2022-10-16T12:13:29;8.65;;;1.10;;
72920;SDS011;61064;51.654;5.476;2022-10-16T12:16:06;7.93;;;1.43;;
72920;SDS011;61064;51.654;5.476;2022-10-16T12:18:50;10.63;;;1.30;;
72920;SDS011;61064;51.654;5.476;2022-10-16T12:21:58;9.00;;;1.20;;
72920;SDS011;61064;51.654;5.476;2022-10-16T12:27:02;10.23;;;1.33;;
72920;SDS011;61064;51.654;5.476;2022-10-16T12:32:00;11.07;;;1.58;;
72920;SDS011;61064;51.654;5.476;2022-10-16T12:37:23;10.05;;;1.55;;
72920;SDS011;61064;51.654;5.476;2022-10-16T12:39:51;8.43;;;1.20;;
72920;SDS011;61064;51.654;5.476;2022-10-16T12:44:50;12.70;;;1.35;;
72920;SDS011;61064;51.654;5.476;2022-10-16T12:49:59;12.93;;;1.55;;
72920;SDS011;61064;51.654;5.476;2022-10-16T12:52:26;12.33;;;1.40;;
72920;SDS011;61064;51.654;5.476;2022-10-16T12:55:15;10.17;;;1.33;;
72920;SDS011;61064;51.654;5.476;2022-10-16T13:00:28;12.07;;;1.52;;
72920;SDS011;61064;51.654;5.476;2022-10-16T13:03:20;7.43;;;0.95;;
72920;SDS011;61064;51.654;5.476;2022-10-16T13:12:09;9.70;;;1.30;;
72920;SDS011;61064;51.654;5.476;2022-10-16T13:17:30;8.38;;;1.27;;
72920;SDS011;61064;51.654;5.476;2022-10-16T13:22:29;9.57;;;1.27;;
72920;SDS011;61064;51.654;5.476;2022-10-16T13:28:05;10.43;;;1.00;;
72920;SDS011;61064;51.654;5.476;2022-10-16T13:30:38;10.38;;;1.27;;
72920;SDS011;61064;51.654;5.476;2022-10-16T13:33:07;8.07;;;1.10;;
72920;SDS011;61064;51.654;5.476;2022-10-16T13:35:51;11.20;;;1.50;;
72920;SDS011;61064;51.654;5.476;2022-10-16T13:38:19;7.10;;;1.10;;
72920;SDS011;61064;51.654;5.476;2022-10-16T13:40:51;14.15;;;1.85;;
72920;SDS011;61064;51.654;5.476;2022-10-16T13:43:23;8.32;;;1.00;;
72920;SDS011;61064;51.654;5.476;2022-10-16T13:45:55;11.23;;;1.30;;
72920;SDS011;61064;51.654;5.476;2022-10-16T13:48:22;9.90;;;1.20;;
72920;SDS011;61064;51.654;5.476;2022-10-16T13:50:57;10.57;;;1.40;;
72920;SDS011;61064;51.654;5.476;2022-10-16T13:53:38;9.60;;;1.17;;
72920;SDS011;61064;51.654;5.476;2022-10-16T13:56:06;9.70;;;1.15;;
72920;SDS011;61064;51.654;5.476;2022-10-16T13:58:35;11.82;;;1.45;;
72920;SDS011;61064;51.654;5.476;2022-10-16T14:01:02;7.18;;;1.00;;
72920;SDS011;61064;51.654;5.476;2022-10-16T14:03:33;9.38;;;1.30;;
72920;SDS011;61064;51.654;5.476;2022-10-16T14:06:01;7.60;;;1.00;;
72920;SDS011;61064;51.654;5.476;2022-10-16T14:08:31;9.77;;;1.13;;
72920;SDS011;61064;51.654;5.476;2022-10-16T14:10:57;7.93;;;0.80;;
72920;SDS011;61064;51.654;5.476;2022-10-16T14:13:37;5.53;;;0.77;;
72920;SDS011;61064;51.654;5.476;2022-10-16T14:16:39;9.68;;;0.90;;
72920;SDS011;61064;51.654;5.476;2022-10-16T14:18:59;8.00;;;0.80;;
72920;SDS011;61064;51.654;5.476;2022-10-16T14:21:29;6.93;;;0.90;;
72920;SDS011;61064;51.654;5.476;2022-10-16T14:23:54;6.65;;;0.80;;
72920;SDS011;61064;51.654;5.476;2022-10-16T14:26:25;7.07;;;0.80;;
72920;SDS011;61064;51.654;5.476;2022-10-16T14:29:03;8.43;;;1.20;;
72920;SDS011;61064;51.654;5.476;2022-10-16T14:31:36;7.77;;;1.10;;
72920;SDS011;61064;51.654;5.476;2022-10-16T14:34:02;7.47;;;0.90;;
72920;SDS011;61064;51.654;5.476;2022-10-16T14:36:30;8.05;;;1.00;;
72920;SDS011;61064;51.654;5.476;2022-10-16T14:41:31;6.80;;;0.93;;
72920;SDS011;61064;51.654;5.476;2022-10-16T14:44:05;11.32;;;1.50;;
72920;SDS011;61064;51.654;5.476;2022-10-16T14:46:36;7.82;;;0.98;;
72920;SDS011;61064;51.654;5.476;2022-10-16T14:51:36;10.50;;;0.90;;
72920;SDS011;61064;51.654;5.476;2022-10-16T14:54:02;8.93;;;1.00;;
72920;SDS011;61064;51.654;5.476;2022-10-16T14:56:29;8.95;;;1.00;;
72920;SDS011;61064;51.654;5.476;2022-10-16T14:58:56;8.13;;;0.90;;
72920;SDS011;61064;51.654;5.476;2022-10-16T15:01:22;7.73;;;1.00;;
72920;SDS011;61064;51.654;5.476;2022-10-16T15:03:47;7.35;;;1.17;;
72920;SDS011;61064;51.654;5.476;2022-10-16T15:06:14;5.77;;;0.97;;
72920;SDS011;61064;51.654;5.476;2022-10-16T15:08:40;5.82;;;0.68;;
72920;SDS011;61064;51.654;5.476;2022-10-16T15:11:12;9.07;;;1.17;;
72920;SDS011;61064;51.654;5.476;2022-10-16T15:13:40;6.30;;;1.10;;
72920;SDS011;61064;51.654;5.476;2022-10-16T15:16:07;11.23;;;1.07;;
72920;SDS011;61064;51.654;5.476;2022-10-16T15:18:35;9.27;;;1.20;;
72920;SDS011;61064;51.654;5.476;2022-10-16T15:21:00;9.80;;;1.50;;
72920;SDS011;61064;51.654;5.476;2022-10-16T15:23:29;9.98;;;1.60;;
72920;SDS011;61064;51.654;5.476;2022-10-16T15:25:54;9.60;;;2.25;;
72920;SDS011;61064;51.654;5.476;2022-10-16T15:28:21;8.15;;;2.25;;
72920;SDS011;61064;51.654;5.476;2022-10-16T15:30:52;12.63;;;2.67;;
72920;SDS011;61064;51.654;5.476;2022-10-16T15:33:19;11.73;;;2.13;;
72920;SDS011;61064;51.654;5.476;2022-10-16T15:35:48;9.85;;;1.90;;
72920;SDS011;61064;51.654;5.476;2022-10-16T15:38:15;9.50;;;1.90;;
72920;SDS011;61064;51.654;5.476;2022-10-16T15:40:42;7.30;;;1.73;;
72920;SDS011;61064;51.654;5.476;2022-10-16T15:43:07;9.90;;;1.60;;
72920;SDS011;61064;51.654;5.476;2022-10-16T15:45:33;9.00;;;1.50;;
72920;SDS011;61064;51.654;5.476;2022-10-16T15:47:58;8.80;;;1.20;;
72920;SDS011;61064;51.654;5.476;2022-10-16T15:50:24;10.32;;;1.40;;
72920;SDS011;61064;51.654;5.476;2022-10-16T15:52:50;10.70;;;1.10;;
72920;SDS011;61064;51.654;5.476;2022-10-16T15:55:16;8.05;;;1.35;;
72920;SDS011;61064;51.654;5.476;2022-10-16T15:57:43;7.80;;;1.20;;
72920;SDS011;61064;51.654;5.476;2022-10-16T16:00:09;11.23;;;1.80;;
72920;SDS011;61064;51.654;5.476;2022-10-16T16:02:37;9.93;;;2.25;;
72920;SDS011;61064;51.654;5.476;2022-10-16T16:05:03;10.32;;;2.53;;
72920;SDS011;61064;51.654;5.476;2022-10-16T16:07:32;8.33;;;2.20;;
72920;SDS011;61064;51.654;5.476;2022-10-16T16:09:59;13.40;;;2.63;;
72920;SDS011;61064;51.654;5.476;2022-10-16T16:12:24;12.50;;;2.60;;
72920;SDS011;61064;51.654;5.476;2022-10-16T16:14:49;10.53;;;2.13;;
72920;SDS011;61064;51.654;5.476;2022-10-16T16:17:16;9.57;;;2.30;;
72920;SDS011;61064;51.654;5.476;2022-10-16T16:19:41;11.75;;;2.20;;
72920;SDS011;61064;51.654;5.476;2022-10-16T16:22:07;10.67;;;3.03;;
72920;SDS011;61064;51.654;5.476;2022-10-16T16:24:32;11.10;;;3.90;;
72920;SDS011;61064;51.654;5.476;2022-10-16T16:26:58;11.02;;;3.75;;
72920;SDS011;61064;51.654;5.476;2022-10-16T16:29:23;10.13;;;3.23;;
72920;SDS011;61064;51.654;5.476;2022-10-16T16:31:48;9.37;;;2.97;;
72920;SDS011;61064;51.654;5.476;2022-10-16T16:34:14;11.70;;;2.70;;
72920;SDS011;61064;51.654;5.476;2022-10-16T16:36:40;12.60;;;3.50;;
72920;SDS011;61064;51.654;5.476;2022-10-16T16:39:06;9.98;;;2.78;;
72920;SDS011;61064;51.654;5.476;2022-10-16T16:41:33;8.27;;;2.65;;
72920;SDS011;61064;51.654;5.476;2022-10-16T16:44:03;9.07;;;3.05;;
72920;SDS011;61064;51.654;5.476;2022-10-16T16:46:31;11.50;;;3.30;;
72920;SDS011;61064;51.654;5.476;2022-10-16T16:48:58;10.73;;;3.42;;
72920;SDS011;61064;51.654;5.476;2022-10-16T16:51:24;11.48;;;5.28;;
72920;SDS011;61064;51.654;5.476;2022-10-16T16:53:50;9.67;;;4.50;;
72920;SDS011;61064;51.654;5.476;2022-10-16T16:56:17;14.32;;;6.10;;
72920;SDS011;61064;51.654;5.476;2022-10-16T16:58:47;20.08;;;8.30;;